METAR Data
IDs: Format: Raw Decoded Include TAF

Data at: 1856 UTC 14 Dec 2018

KPEQ 141835Z AUTO 32003KT 7SM CLR 10/M08 A3038 RMK AO2 T01041083
KPEQ 141815Z AUTO 32006KT 10SM CLR 10/M08 A3040 RMK AO2 T00961081
KPEQ 141755Z AUTO 30007KT 10SM CLR 09/M07 A3041 RMK AO2 T00891075 10089 21037
KPEQ 141735Z AUTO 27006KT 10SM CLR 08/M07 A3043 RMK AO2 T00761071
KPEQ 141715Z AUTO 23006KT 10SM CLR 07/M06 A3044 RMK AO2 T00661063
KPEQ 141655Z AUTO 27003KT 10SM CLR 06/M07 A3044 RMK AO2 T00561072
KPEQ 141635Z AUTO 28003KT 10SM CLR 05/M07 A3043 RMK AO2 T00491073
KPEQ 141615Z AUTO 00000KT 10SM CLR 04/M07 A3043 RMK AO2 T00391071
KPEQ 141555Z AUTO 27003KT 10SM CLR 03/M07 A3042 RMK AO2 T00291067
KPEQ 141535Z AUTO 27004KT 10SM CLR 02/M06 A3041 RMK AO2 T00171065
KPEQ 141515Z AUTO 26006KT 10SM CLR 01/M06 A3040 RMK AO2 T00061063
KPEQ 141455Z AUTO 25008KT 10SM CLR 00/M07 A3040 RMK AO2 T00001067
KPEQ 141435Z AUTO 24005KT 10SM CLR M01/M07 A3040 RMK AO2 T10151066
KPEQ 141415Z AUTO 24005KT 10SM CLR M03/M07 A3039 RMK AO2 T10261068
KPEQ 141355Z AUTO 22007KT 10SM CLR M03/M07 A3038 RMK AO2 T10331071
KPEQ 141335Z AUTO 24004KT 10SM CLR M03/M07 A3038 RMK AO2 T10341073
KPEQ 141315Z AUTO 24004KT 10SM CLR M03/M07 A3037 RMK AO2 T10331072
KPEQ 141255Z AUTO 26006KT 10SM CLR M03/M07 A3036 RMK AO2 T10351070
KPEQ 141235Z AUTO 25006KT 10SM CLR M03/M07 A3036 RMK AO2 T10291068
KPEQ 141215Z AUTO 26007KT 10SM CLR M02/M07 A3034 RMK AO2 T10231068
KPEQ 141155Z AUTO 26009KT 10SM CLR M02/M07 A3034 RMK AO2 T10241066 10025 21025
KPEQ 141135Z AUTO 26009KT 10SM CLR M02/M07 A3034 RMK AO2 T10221066
KPEQ 141115Z AUTO 26008KT 10SM CLR M02/M07 A3034 RMK AO2 T10221067
KPEQ 141055Z AUTO 26008KT 10SM CLR M02/M07 A3034 RMK AO2 T10231068
KPEQ 141035Z AUTO 25006KT 10SM CLR M01/M07 A3034 RMK AO2 T10151070
KPEQ 141015Z AUTO 28007KT 10SM CLR M01/M07 A3034 RMK AO2 T10071069
KPEQ 140955Z AUTO 27008KT 10SM CLR 00/M07 A3034 RMK AO2 T10021071
KPEQ 140935Z AUTO 28009KT 10SM CLR 01/M08 A3033 RMK AO2 T00101076
KPEQ 140915Z AUTO 28008KT 10SM CLR 01/M07 A3033 RMK AO2 T00051070
KPEQ 140855Z AUTO 28009KT 10SM CLR 00/M06 A3033 RMK AO2 T10011064
KPEQ 140835Z AUTO 27009KT 10SM CLR M01/M06 A3033 RMK AO2 T10061061
KPEQ 140815Z AUTO 26009KT 10SM CLR 00/M06 A3033 RMK AO2 T10051063
KPEQ 140755Z AUTO 26008KT 10SM CLR 00/M06 A3032 RMK AO2 T10041065
KPEQ 140735Z AUTO 27009KT 10SM CLR 00/M07 A3032 RMK AO2 T00001066
KPEQ 140715Z AUTO 29009KT 10SM CLR 02/M07 A3032 RMK AO2 T00151070
KPEQ 140655Z AUTO 30007KT 10SM CLR 01/M07 A3031 RMK AO2 T00121071
KPEQ 140635Z AUTO 31007KT 10SM CLR 01/M07 A3031 RMK AO2 T00101070
KPEQ 140615Z AUTO 30007KT 10SM CLR 02/M07 A3031 RMK AO2 T00221074
KPEQ 140555Z AUTO 29008KT 10SM CLR 03/M07 A3030 RMK AO2 T00251071 10095 20006 401370006
KPEQ 140535Z AUTO 30007KT 10SM CLR 02/M07 A3030 RMK AO2 T00201066
KPEQ 140515Z AUTO 30007KT 10SM CLR 03/M07 A3030 RMK AO2 T00261066
KPEQ 140455Z AUTO 30008KT 10SM CLR 03/M06 A3029 RMK AO2 T00331064
KPEQ 140435Z AUTO 31007KT 10SM CLR 03/M06 A3029 RMK AO2 T00331059
KPEQ 140415Z AUTO 30008KT 10SM CLR 03/M05 A3028 RMK AO2 T00271052
KPEQ 140355Z AUTO 29004KT 10SM CLR 01/M05 A3027 RMK AO2 T00061047
KPEQ 140335Z AUTO 27005KT 10SM CLR 01/M05 A3026 RMK AO2 T00141049
KPEQ 140315Z AUTO 30007KT 10SM CLR 04/M05 A3026 RMK AO2 T00401053
KPEQ 140255Z AUTO 32009KT 10SM CLR 04/M05 A3025 RMK AO2 T00381055
KPEQ 140235Z AUTO 30007KT 10SM CLR 04/M05 A3024 RMK AO2 T00431052
KPEQ 140215Z AUTO 27007KT 10SM CLR 06/M06 A3023 RMK AO2 T00561058
KPEQ 140155Z AUTO 29008KT 10SM CLR 06/M06 A3021 RMK AO2 T00611058
KPEQ 140135Z AUTO 29008KT 10SM CLR 06/M06 A3020 RMK AO2 T00621061
KPEQ 140115Z AUTO 30008KT 10SM CLR 07/M06 A3019 RMK AO2 T00661065
KPEQ 140055Z AUTO 31009KT 10SM CLR 07/M07 A3019 RMK AO2 T00741071
KPEQ 140035Z AUTO 31010KT 10SM CLR 08/M08 A3018 RMK AO2 T00791076
KPEQ 140015Z AUTO 31011KT 10SM CLR 09/M08 A3018 RMK AO2 T00871082
KPEQ 132355Z AUTO 31016G24KT 10SM CLR 10/M08 A3018 RMK AO2 T00961085 10115 20066
KPEQ 132335Z AUTO 31015G24KT 10SM CLR 10/M07 A3018 RMK AO2 T01011074
KPEQ 132315Z AUTO 31017G23KT 10SM CLR 11/M08 A3018 RMK AO2 T01061078
KPEQ 132255Z AUTO 32017G29KT 10SM CLR 11/M09 A3018 RMK AO2 T01101086
KPEQ 132235Z AUTO 32021G27KT 10SM CLR 11/M08 A3018 RMK AO2 T01101081
KPEQ 132215Z AUTO 32023G31KT 10SM CLR 11/M07 A3018 RMK AO2 T01121072
KPEQ 132155Z AUTO 32021G32KT 10SM CLR 11/M07 A3018 RMK AO2 T01121073
KPEQ 132135Z AUTO 33021G33KT 10SM CLR 11/M08 A3017 RMK AO2 T01131079
KPEQ 132115Z AUTO 33022G27KT 10SM CLR 11/M06 A3017 RMK AO2 T01131062
KPEQ 132055Z AUTO 33019G30KT 10SM SCT120 11/M07 A3017 RMK AO2 T01131066
KPEQ 132035Z AUTO 32023G30KT 10SM SCT120 11/M05 A3017 RMK AO2 LTG DSNT NE T01061055
KPEQ 132015Z AUTO 32019G26KT 10SM CLR 10/M05 A3017 RMK AO2 T01021054
KPEQ 131955Z AUTO 32018G25KT 10SM CLR 10/M04 A3018 RMK AO2 T00991043
KPEQ 131935Z AUTO 33023G27KT 10SM SCT065 SCT090 09/M04 A3018 RMK AO2 LTG DSNT NE T00901038
KPEQ 131915Z AUTO 32023G29KT 10SM BKN055 OVC075 07/M02 A3019 RMK AO2 T00741025
KPEQ 131855Z AUTO 33021G28KT 10SM OVC055 07/M03 A3019 RMK AO2 T00701031
KPEQ 131835Z AUTO 33024G35KT 10SM SCT049 OVC065 07/M02 A3020 RMK AO2 T00701019
KPEQ 131815Z AUTO 33023G34KT 10SM SCT038 SCT045 OVC065 07/M02 A3020 RMK AO2 T00691016
KPEQ 131755Z AUTO 33034G40KT 10SM SCT034 BKN041 OVC075 07/M01 A3020 RMK AO2 T00671012 10080 20041
KPEQ 131735Z AUTO 32026G33KT 10SM BKN033 BKN045 OVC055 07/00 A3019 RMK AO2 T00660000
KPEQ 131715Z AUTO 32028G34KT 10SM SCT025 BKN034 OVC060 06/00 A3019 RMK AO2 T00630001
KPEQ 131655Z AUTO 31024G33KT 10SM BKN025 BKN034 OVC040 06/01 A3018 RMK AO2 T00630014
KPEQ 131635Z AUTO 31022G33KT 10SM BKN024 OVC032 06/02 A3017 RMK AO2 T00580016
KPEQ 131615Z AUTO 31023G31KT 10SM BKN022 OVC031 05/02 A3016 RMK AO2 T00540020
KPEQ 131555Z AUTO 32019G33KT 10SM DZ BKN023 OVC027 05/02 A3014 RMK AO2 T00500021
KPEQ 131535Z AUTO 31021G31KT 10SM -DZ BKN018 OVC025 05/02 A3011 RMK AO2 T00450020
KPEQ 131515Z AUTO 31022G29KT 10SM -DZ OVC016 04/02 A3009 RMK AO2 T00430017
KPEQ 131455Z AUTO 32022G33KT 10SM -DZ BKN016 OVC047 04/02 A3007 RMK AO2 T00420016
KPEQ 131435Z AUTO 33027G37KT 10SM SCT020 BKN047 OVC060 05/01 A3003 RMK AO2 T00510011
KPEQ 131415Z AUTO 32027G35KT 10SM OVC022 05/01 A3000 RMK AO2 T00460008
KPEQ 131355Z AUTO 30022G33KT 10SM BKN024 BKN029 OVC035 06/01 A2998 RMK AO2 T00560009
KPEQ 131335Z AUTO 30026G34KT 10SM SCT030 SCT034 BKN070 06/00 A2995 RMK AO2 T00590000
KPEQ 131315Z AUTO 29022G27KT 10SM SCT070 07/M05 A2993 RMK AO2 T00741055
KPEQ 131255Z AUTO 28022G29KT 10SM CLR 08/M08 A2991 RMK AO2 T00761076
KPEQ 131235Z AUTO 27020G25KT 10SM CLR 08/M07 A2989 RMK AO2 T00751072
KPEQ 131215Z AUTO 28009KT 10SM CLR 07/M01 A2989 RMK AO2 T00671015
KPEQ 131155Z AUTO 30009KT 10SM BKN100 08/M01 A2988 RMK AO2 T00791011 10137 20079
KPEQ 131135Z AUTO 29013G16KT 10SM OVC100 09/00 A2987 RMK AO2 T00900003
KPEQ 131115Z AUTO 29010G19KT 10SM BKN080 OVC090 10/02 A2985 RMK AO2 T00970015
KPEQ 131055Z AUTO 29010KT 10SM BKN080 10/03 A2983 RMK AO2 T01040026
KPEQ 131035Z AUTO 27025G32KT 10SM CLR 12/00 A2981 RMK AO2 T01190002
KPEQ 131015Z AUTO 28013KT 10SM CLR 12/01 A2979 RMK AO2 T01180010
KPEQ 130955Z AUTO 27009KT 10SM CLR 12/01 A2979 RMK AO2 T01150013
KPEQ 130935Z AUTO 26009KT 10SM CLR 12/02 A2979 RMK AO2 T01180020
KPEQ 130915Z AUTO 26011KT 10SM CLR 12/03 A2979 RMK AO2 LTG DSNT NE T01220030
KPEQ 130855Z AUTO 25015G23KT 10SM CLR 14/03 A2979 RMK AO2 T01370033
KPEQ 130835Z AUTO 26017G21KT 10SM CLR 13/04 A2979 RMK AO2 T01320039
KPEQ 130815Z AUTO 28005KT 10SM CLR 10/05 A2978 RMK AO2 T01040046
KPEQ 130755Z AUTO 22003KT 10SM CLR 10/05 A2978 RMK AO2 T01030051
KPEQ 130735Z AUTO 23008KT 10SM CLR 12/06 A2978 RMK AO2 T01150055
KPEQ 130715Z AUTO 23009KT 10SM CLR 13/06 A2978 RMK AO2 T01300057